createdAt,value
2016-12-05T12:18:53.110Z,1019.13
2016-12-05T12:19:33.724Z,1019.19
2016-12-05T13:05:25.442Z,1018.99
2016-12-05T13:06:05.998Z,1019
2016-12-05T13:06:46.557Z,1019.01
2016-12-05T13:07:27.113Z,1018.98
2016-12-05T13:08:07.643Z,1019.07
2016-12-05T13:08:48.183Z,1019.08
2016-12-05T13:09:32.411Z,1019.08
2016-12-05T13:10:12.963Z,1019.06
2016-12-05T13:10:53.483Z,1019.08
2016-12-05T13:11:34.013Z,1019.04
2016-12-05T13:12:14.556Z,1019.01
2016-12-05T13:12:55.481Z,1019.03
2016-12-05T13:13:36.018Z,1018.98
2016-12-05T13:14:16.551Z,1018.98
2016-12-05T13:14:57.269Z,1019.02
2016-12-05T13:17:25.325Z,1019.02
2016-12-05T13:18:07.136Z,1019.07
2016-12-05T13:19:07.815Z,1019.05
2016-12-05T13:19:48.349Z,1019.06
2016-12-05T13:20:28.913Z,1019.1
2016-12-05T13:21:09.438Z,1019.05
2016-12-05T13:21:49.988Z,1019.04
2016-12-05T13:22:30.620Z,1019.05
2016-12-05T13:23:11.145Z,1019.04
2016-12-05T13:23:51.678Z,1019.07
2016-12-05T13:24:32.204Z,1019.01
2016-12-05T13:25:12.761Z,1019
2016-12-05T13:25:53.289Z,1018.96
2016-12-05T13:26:33.914Z,1019.04
2016-12-05T13:27:14.577Z,1018.99
2016-12-05T13:29:08.986Z,1019
2016-12-05T13:29:49.603Z,1019.05
2016-12-05T13:30:36.655Z,1019.07
2016-12-05T13:31:21.411Z,1019.06
2016-12-05T13:32:11.456Z,1019.03
2016-12-05T13:32:52.045Z,1018.98
2016-12-05T13:33:32.822Z,1018.96
2016-12-05T13:34:26.712Z,1019.01
2016-12-05T13:35:11.552Z,1018.97
2016-12-05T13:35:53.461Z,1018.94
2016-12-05T13:36:33.980Z,1018.95
2016-12-05T13:37:14.913Z,1018.99
2016-12-05T13:37:55.420Z,1018.94
2016-12-05T13:38:35.991Z,1018.97
2016-12-05T13:39:16.518Z,1018.98
2016-12-05T13:39:57.028Z,1018.93
2016-12-05T13:40:37.522Z,1019.01
2016-12-05T13:41:18.018Z,1019.01
2016-12-05T13:41:58.559Z,1018.92
2016-12-05T13:42:39.151Z,1018.93
2016-12-05T13:43:19.675Z,1018.92
2016-12-05T13:44:00.197Z,1018.98
2016-12-05T13:44:40.764Z,1018.97
2016-12-05T13:45:21.342Z,1018.93
2016-12-05T13:46:02.138Z,1018.98
2016-12-05T13:46:42.642Z,1018.92
2016-12-05T13:47:23.171Z,1018.93
2016-12-05T13:48:03.736Z,1018.92
2016-12-05T13:48:44.255Z,1019.01
2016-12-05T13:49:24.773Z,1018.96
2016-12-05T13:50:05.310Z,1018.97
2016-12-05T13:50:45.989Z,1018.97
2016-12-05T13:51:26.567Z,1019
2016-12-05T13:52:07.129Z,1019.06
2016-12-05T13:52:47.675Z,1019.08
2016-12-05T13:53:28.206Z,1019.01
2016-12-05T13:54:08.818Z,1018.98
2016-12-05T13:54:49.351Z,1019.01
2016-12-05T13:55:29.921Z,1019
2016-12-05T13:56:10.452Z,1018.99
2016-12-05T13:56:50.990Z,1019.05
2016-12-05T13:57:31.523Z,1019.1
2016-12-05T13:58:12.059Z,1018.97
2016-12-05T13:58:52.592Z,1018.98
2016-12-05T13:59:33.203Z,1019.09
2016-12-05T14:00:13.744Z,1019.02
2016-12-05T14:00:54.275Z,1019.04
2016-12-05T14:01:34.802Z,1019.12
2016-12-05T14:02:15.362Z,1019.05
2016-12-05T14:02:55.917Z,1019.07
2016-12-05T14:03:36.636Z,1019.15
2016-12-05T14:04:17.319Z,1019.09
2016-12-05T14:04:57.925Z,1019.14
2016-12-05T14:05:38.709Z,1019.1
2016-12-05T14:06:19.202Z,1019.19
2016-12-05T14:08:17.006Z,1019.11
2016-12-05T14:08:57.590Z,1019.15
2016-12-05T14:09:38.125Z,1019.14
2016-12-05T14:10:18.661Z,1019.13
2016-12-05T14:10:59.203Z,1019.1
2016-12-05T14:11:39.728Z,1019.19
